Aviation Digital Data Service (ADDS)

Output produced by METARs form (1035 UTC 25 June 2017)
found at http://aviationweather.gov/adds/metars/
 
KGSP 250520Z 2506/2606 30004KT P6SM SCT200 
     FM251400 36004KT P6SM SCT200 
     FM260000 35005KT P6SM BKN070 
     FM260100 35005KT P6SM SCT070